createdAt,value
2023-01-03T07:17:01.512Z,101603.97
2023-01-03T07:19:38.991Z,101602.28
2023-01-03T07:22:15.922Z,101617.97
2023-01-03T07:24:53.190Z,101623.38
2023-01-03T07:27:30.142Z,101617.16
2023-01-03T07:30:08.334Z,101627.59
2023-01-03T07:32:49.427Z,101624.94
2023-01-03T07:35:26.916Z,101633.81
2023-01-03T07:38:04.149Z,101646.19
2023-01-03T07:40:41.521Z,101635.28
2023-01-03T07:43:30.581Z,101638.22
2023-01-03T07:46:13.862Z,101630.34
2023-01-03T07:48:55.459Z,101633.00
2023-01-03T07:51:33.122Z,101630.66
2023-01-03T07:54:10.347Z,101647.28
2023-01-03T07:56:47.832Z,101649.22
2023-01-03T07:59:24.691Z,101651.03
2023-01-03T08:02:02.656Z,101646.56
2023-01-03T08:04:42.354Z,101651.78
2023-01-03T08:07:19.852Z,101655.19
2023-01-03T08:10:09.003Z,101676.19
2023-01-03T08:12:58.550Z,101661.03
2023-01-03T08:15:35.838Z,101663.75
2023-01-03T08:18:13.161Z,101666.06
2023-01-03T08:20:55.832Z,101668.63
2023-01-03T08:23:34.094Z,101685.97
2023-01-03T08:26:13.877Z,101689.47
2023-01-03T08:28:51.318Z,101684.06
2023-01-03T08:31:32.863Z,101694.31
2023-01-03T08:34:19.708Z,101710.16
2023-01-03T08:37:05.415Z,101711.47
2023-01-03T08:39:46.354Z,101717.66
2023-01-03T08:42:26.057Z,101732.47
2023-01-03T08:45:08.036Z,101723.59
2023-01-03T08:47:46.163Z,101762.34
2023-01-03T08:50:24.392Z,101718.31
2023-01-03T08:53:05.570Z,101727.88
2023-01-03T08:55:43.019Z,101734.94
2023-01-03T08:58:20.081Z,101737.00
2023-01-03T09:00:57.490Z,101729.31
2023-01-03T09:03:34.572Z,101730.03
2023-01-03T09:06:12.379Z,101732.59
2023-01-03T09:08:52.059Z,101728.94
2023-01-03T09:11:29.422Z,101767.72
2023-01-03T09:14:06.361Z,101754.72
2023-01-03T09:16:48.699Z,101758.94
2023-01-03T09:19:26.667Z,101759.88
2023-01-03T09:22:04.060Z,101764.22
2023-01-03T09:24:43.906Z,101781.00
2023-01-03T09:27:21.649Z,101777.28
2023-01-03T09:29:58.628Z,101780.88
2023-01-03T09:32:35.897Z,101789.06
2023-01-03T09:35:13.687Z,101779.22
2023-01-03T09:37:51.817Z,101779.28
2023-01-03T09:40:33.139Z,101786.16
2023-01-03T09:43:23.139Z,101773.00
2023-01-03T09:46:02.533Z,101779.00
2023-01-03T09:48:43.398Z,101778.88
2023-01-03T09:51:37.453Z,101800.28
2023-01-03T09:54:32.258Z,101787.72
2023-01-03T09:57:29.568Z,101781.34
2023-01-03T10:00:27.628Z,101789.44
2023-01-03T10:03:42.076Z,101774.59
2023-01-03T10:06:38.808Z,101791.28
2023-01-03T10:09:31.873Z,101792.84
2023-01-03T10:12:23.736Z,101782.56
2023-01-03T10:15:21.479Z,101788.19
2023-01-03T10:18:08.766Z,101800.91
2023-01-03T10:20:51.720Z,101782.25
2023-01-03T10:23:28.993Z,101787.09
2023-01-03T10:26:11.872Z,101786.69
2023-01-03T10:28:52.535Z,101787.22
2023-01-03T10:31:48.650Z,101794.50
2023-01-03T10:34:25.982Z,101809.78
2023-01-03T10:37:02.962Z,101798.13
2023-01-03T10:39:41.985Z,101814.63
2023-01-03T10:42:22.551Z,101811.91
2023-01-03T10:45:08.852Z,101821.63
2023-01-03T10:47:46.577Z,101810.41
2023-01-03T10:50:27.580Z,101816.31
2023-01-03T10:53:10.167Z,101815.69
2023-01-03T10:55:54.850Z,101810.28
2023-01-03T10:58:36.561Z,101824.56
2023-01-03T11:01:27.105Z,101813.78
2023-01-03T11:04:20.246Z,101818.84
2023-01-03T11:07:06.197Z,101837.03
2023-01-03T11:09:52.066Z,101829.56
2023-01-03T11:12:38.416Z,101833.16
2023-01-03T11:15:22.051Z,101831.72
2023-01-03T11:18:04.241Z,101839.50
2023-01-03T11:20:53.109Z,101831.09
2023-01-03T11:24:00.923Z,101858.00
2023-01-03T11:26:50.823Z,101844.56
2023-01-03T11:30:13.407Z,101842.44
2023-01-03T11:33:15.751Z,101848.59
2023-01-03T11:36:30.058Z,101849.56
2023-01-03T11:39:26.527Z,101850.41
2023-01-03T11:42:26.871Z,101861.84
2023-01-03T11:45:27.502Z,101860.16
2023-01-03T11:48:43.104Z,101877.69
2023-01-03T11:51:29.863Z,101864.00
2023-01-03T11:54:15.293Z,101869.13
2023-01-03T11:56:54.363Z,101867.53
2023-01-03T11:59:57.719Z,101877.91
2023-01-03T12:03:09.042Z,101862.13
2023-01-03T12:05:54.801Z,101865.81
2023-01-03T12:09:14.482Z,101867.41
2023-01-03T12:12:35.030Z,101871.25
2023-01-03T12:15:22.360Z,101878.38
2023-01-03T12:18:07.139Z,101885.50
2023-01-03T12:20:52.391Z,101880.31
2023-01-03T12:23:44.170Z,101885.47
2023-01-03T12:26:21.163Z,101885.31
2023-01-03T12:29:07.491Z,101879.31
2023-01-03T12:31:51.426Z,101881.84
2023-01-03T12:34:36.040Z,101888.75
2023-01-03T12:37:21.994Z,101902.97
2023-01-03T12:40:03.477Z,101897.69
2023-01-03T12:42:46.897Z,101904.78
2023-01-03T12:45:40.243Z,101902.09
2023-01-03T12:48:44.500Z,101904.16
2023-01-03T12:51:25.486Z,101916.03
2023-01-03T12:54:20.801Z,101908.78
2023-01-03T12:57:35.919Z,101916.16
2023-01-03T13:00:31.093Z,101907.25
2023-01-03T13:03:18.787Z,101909.03
2023-01-03T13:06:01.930Z,101909.44
2023-01-03T13:08:46.585Z,101907.84
2023-01-03T13:11:32.362Z,101908.56
2023-01-03T13:14:22.493Z,101910.72
2023-01-03T13:17:07.948Z,101907.22
2023-01-03T13:20:02.647Z,101919.41
2023-01-03T13:22:54.712Z,101920.31
2023-01-03T13:25:44.576Z,101925.53
2023-01-03T13:28:37.985Z,101934.38
2023-01-03T13:31:44.794Z,101942.31
2023-01-03T13:34:35.628Z,101936.47
2023-01-03T13:37:23.668Z,101941.09
2023-01-03T13:41:07.491Z,101945.34
2023-01-03T13:43:40.101Z,101933.03
2023-01-03T13:46:28.018Z,101938.44
2023-01-03T13:49:08.168Z,101943.88
2023-01-03T13:51:54.548Z,101942.03
2023-01-03T13:55:01.660Z,101945.56
2023-01-03T13:57:56.573Z,101944.59
2023-01-03T14:00:37.452Z,101961.66
2023-01-03T14:04:00.299Z,101957.06
2023-01-03T14:07:13.135Z,101961.41
2023-01-03T14:10:24.964Z,101961.28
2023-01-03T14:13:39.448Z,101965.00
2023-01-03T14:16:29.395Z,101975.66
2023-01-03T14:19:15.869Z,101970.50
2023-01-03T14:22:14.075Z,101971.41
2023-01-03T14:25:00.074Z,101984.97
2023-01-03T14:27:43.084Z,101971.97
2023-01-03T14:30:26.287Z,101984.44
2023-01-03T14:33:06.592Z,101979.97
2023-01-03T14:35:45.822Z,101989.75
2023-01-03T14:38:27.358Z,101984.94
2023-01-03T14:41:05.716Z,101988.22
2023-01-03T14:43:43.776Z,101988.28
2023-01-03T14:46:21.378Z,102003.59
2023-01-03T14:49:06.397Z,101996.50
2023-01-03T14:51:44.557Z,101989.72
2023-01-03T14:54:23.861Z,102006.31
2023-01-03T14:57:05.196Z,102000.19
2023-01-03T14:59:42.380Z,102014.09
2023-01-03T15:02:20.672Z,102018.56
2023-01-03T15:05:06.220Z,102022.31
2023-01-03T15:07:45.960Z,102017.50
2023-01-03T15:10:33.591Z,102013.00
2023-01-03T15:13:22.910Z,102022.50
2023-01-03T15:16:02.357Z,102022.66
2023-01-03T15:18:49.025Z,102020.56
2023-01-03T15:21:28.808Z,102025.97
2023-01-03T15:24:06.812Z,102037.25
2023-01-03T15:26:46.602Z,102030.13
2023-01-03T15:29:26.484Z,102031.94
2023-01-03T15:32:05.041Z,102046.44
2023-01-03T15:34:45.276Z,102043.59
2023-01-03T15:37:28.135Z,102039.00
2023-01-03T15:40:09.423Z,102052.47
2023-01-03T15:43:00.773Z,102045.25
2023-01-03T15:45:42.670Z,102059.59
2023-01-03T15:48:26.701Z,102060.31
2023-01-03T15:51:05.614Z,102065.78
2023-01-03T15:53:46.689Z,102066.81
2023-01-03T15:56:27.001Z,102077.91
2023-01-03T15:59:10.937Z,102078.00
2023-01-03T16:01:49.003Z,102088.63
2023-01-03T16:04:27.422Z,102091.38
2023-01-03T16:07:05.318Z,102097.44
2023-01-03T16:09:45.979Z,102107.19
2023-01-03T16:12:34.357Z,102100.41
2023-01-03T16:15:20.965Z,102106.84
2023-01-03T16:17:58.451Z,102091.03
2023-01-03T16:20:35.640Z,102104.66
2023-01-03T16:23:31.152Z,102098.56
2023-01-03T16:26:11.492Z,102106.75
2023-01-03T16:28:49.591Z,102103.34
2023-01-03T16:31:33.678Z,102104.53
2023-01-03T16:34:19.152Z,102105.59
2023-01-03T16:36:58.392Z,102113.75
2023-01-03T16:39:36.333Z,102102.25
2023-01-03T16:42:18.263Z,102110.25
2023-01-03T16:44:55.856Z,102100.19
2023-01-03T16:47:36.650Z,102103.44
2023-01-03T16:50:19.940Z,102117.66
2023-01-03T16:52:59.458Z,102119.25
2023-01-03T16:55:42.232Z,102123.97
2023-01-03T16:58:21.989Z,102122.03
2023-01-03T17:01:00.241Z,102121.00
2023-01-03T17:03:41.800Z,102130.53
2023-01-03T17:06:38.013Z,102124.41
2023-01-03T17:09:21.006Z,102133.31
2023-01-03T17:11:58.480Z,102134.09
2023-01-03T17:14:40.924Z,102138.38
2023-01-03T17:17:23.039Z,102131.16
2023-01-03T17:20:03.846Z,102138.22
2023-01-03T17:22:43.948Z,102133.81
2023-01-03T17:25:21.592Z,102137.47
2023-01-03T17:28:03.035Z,102142.91
2023-01-03T17:30:43.002Z,102140.47
2023-01-03T17:33:20.688Z,102136.00
2023-01-03T17:35:58.037Z,102150.31
2023-01-03T17:38:37.170Z,102151.22
2023-01-03T17:41:21.381Z,102148.78
2023-01-03T17:43:59.834Z,102152.31
2023-01-03T17:46:52.911Z,102164.78
2023-01-03T17:49:31.380Z,102161.25
2023-01-03T17:52:10.630Z,102158.78
2023-01-03T17:54:48.052Z,102161.34
2023-01-03T17:57:25.890Z,102163.16
2023-01-03T18:00:06.100Z,102165.84
2023-01-03T18:02:50.496Z,102173.06
2023-01-03T18:05:31.560Z,102178.16
2023-01-03T18:08:08.815Z,102182.63
2023-01-03T18:10:47.525Z,102180.81
2023-01-03T18:13:29.181Z,102179.88
2023-01-03T18:16:07.735Z,102182.31
2023-01-03T18:18:48.580Z,102187.59
2023-01-03T18:21:29.789Z,102190.16
2023-01-03T18:24:10.660Z,102182.13
2023-01-03T18:26:53.270Z,102186.50
2023-01-03T18:29:31.583Z,102187.38
2023-01-03T18:32:27.795Z,102180.19
2023-01-03T18:35:08.731Z,102181.00
2023-01-03T18:37:47.514Z,102180.19
2023-01-03T18:40:28.632Z,102175.78
2023-01-03T18:43:16.977Z,102188.09
2023-01-03T18:45:54.945Z,102182.91
2023-01-03T18:48:33.085Z,102192.47
2023-01-03T18:51:18.248Z,102200.16
2023-01-03T18:54:00.832Z,102204.44
2023-01-03T18:56:43.170Z,102211.38
2023-01-03T18:59:25.733Z,102206.91
2023-01-03T19:02:03.212Z,102209.81
2023-01-03T19:04:42.919Z,102203.59
2023-01-03T19:07:33.988Z,102209.19
2023-01-03T19:10:24.339Z,102207.19
2023-01-03T19:13:02.171Z,102200.38
2023-01-03T19:15:39.508Z,102200.41
2023-01-03T19:18:16.582Z,102196.50
2023-01-03T19:20:54.852Z,102195.69
2023-01-03T19:23:34.849Z,102203.56
2023-01-03T19:26:29.440Z,102205.41
2023-01-03T19:29:11.491Z,102202.91
2023-01-03T19:31:51.767Z,102202.06
2023-01-03T19:34:30.665Z,102202.06
2023-01-03T19:37:09.588Z,102208.28
2023-01-03T19:39:53.179Z,102201.44
2023-01-03T19:42:44.231Z,102204.16
2023-01-03T19:45:30.827Z,102216.41
2023-01-03T19:48:22.798Z,102210.16
2023-01-03T19:51:01.617Z,102214.66
2023-01-03T19:53:42.998Z,102199.63
2023-01-03T19:56:27.135Z,102205.69
2023-01-03T19:59:09.960Z,102212.88
2023-01-03T20:02:22.794Z,102204.97
2023-01-03T20:04:52.618Z,102205.88
2023-01-03T20:07:31.847Z,102218.22
2023-01-03T20:10:17.203Z,102206.81
2023-01-03T20:13:02.383Z,102225.25
2023-01-03T20:15:47.856Z,102228.75
2023-01-03T20:18:32.387Z,102221.69
2023-01-03T20:21:22.900Z,102220.06
2023-01-03T20:24:06.099Z,102225.47
2023-01-03T20:26:46.189Z,102239.50
2023-01-03T20:29:33.531Z,102241.22
2023-01-03T20:32:15.357Z,102245.63
2023-01-03T20:34:53.287Z,102235.22
2023-01-03T20:37:33.462Z,102233.44
2023-01-03T20:40:20.352Z,102235.22
2023-01-03T20:43:02.927Z,102226.34
2023-01-03T20:45:44.017Z,102239.50
2023-01-03T20:48:26.147Z,102232.41
2023-01-03T20:51:04.217Z,102237.69
2023-01-03T20:53:47.891Z,102244.63
2023-01-03T20:56:33.139Z,102247.19
2023-01-03T20:59:17.621Z,102243.75
2023-01-03T21:01:58.126Z,102247.19
2023-01-03T21:04:38.099Z,102251.50
2023-01-03T21:07:51.677Z,102250.53
2023-01-03T21:10:29.887Z,102247.84
2023-01-03T21:13:08.043Z,102249.47
2023-01-03T21:15:46.990Z,102246.75
2023-01-03T21:18:29.182Z,102251.88
2023-01-03T21:21:23.342Z,102252.66
2023-01-03T21:24:03.997Z,102248.28
2023-01-03T21:26:42.282Z,102250.91
2023-01-03T21:29:22.824Z,102255.41
2023-01-03T21:32:02.004Z,102258.75
2023-01-03T21:34:42.306Z,102256.91
2023-01-03T21:37:21.112Z,102256.00
2023-01-03T21:40:00.007Z,102253.41
2023-01-03T21:42:49.652Z,102251.69
2023-01-03T21:45:26.897Z,102258.59
2023-01-03T21:48:07.214Z,102258.75
2023-01-03T21:50:50.309Z,102266.56
2023-01-03T21:53:28.159Z,102268.25
2023-01-03T21:56:09.264Z,102262.91
2023-01-03T21:58:46.858Z,102267.44
2023-01-03T22:01:26.604Z,102263.72
2023-01-03T22:04:17.092Z,102272.44
2023-01-03T22:07:01.372Z,102275.84
2023-01-03T22:09:51.512Z,102281.97
2023-01-03T22:12:28.647Z,102277.66
2023-01-03T22:15:06.856Z,102276.66
2023-01-03T22:17:45.252Z,102283.91
